Aérodrome :
LOGIN :

S'inscrire | Disclaimer

   EN    FR    IT 

 










Légende :    VFR   VFR Marginal   IFR   IFR Intensif   IFR Très Intensif
Visi : 
Plafond : 
>= 8 km
>= 3000ft
5 à 8 km
1000 à 3000 ft
1500m à 5 km
500 à 1000 ft
800 à 1500m
200 à 500 ft
< 800m
< 200 ft
Symboles :   Orages  Brouillard  Fortes neiges  Fortes précipitations  Vent > 20 kt
SIGMETs :   Divers  Orages  Givrage  Turbulence  Onde Orograph.  Cendres Volcan.







- Altitude de l'aérodrome : 74 ft
- Code IATA : EIN


EHEH - Eindhoven

DERNIER METAR :
  • 241145Z AUTO 26011KT 180V280 9999 FEW053 OVC130 23/08 Q1014 BLU 27010KT CAVOK

METARs EXPIRÉS :
  • 241135Z AUTO 26009KT 210V330 9999 SCT052 OVC130 22/08 Q1014 BLU 27010KT CAVOK
  • 241125Z AUTO 24010KT 190V320 9999 BKN052 OVC130 23/08 Q1014 BLU 27010KT CAVOK
  • 241055Z AUTO 27010KT 200V300 9999 OVC130 23/09 Q1014 BLU 27010KT CAVOK
  • 241025Z AUTO 25009KT 160V280 9999 SCT062 BKN075 OVC140 22/08 Q1015 BLU 26008KT CAVOK
  • 240955Z AUTO 24005KT 160V320 9999 FEW064 BKN140 OVC290 22/09 Q1015 BLU 26008KT CAVOK
  • 240925Z AUTO 22008KT 160V320 9999 OVC140 21/09 Q1015 BLU 26008KT CAVOK
  • 240855Z AUTO 23006KT 140V300 9999 FEW081 OVC140 21/08 Q1015 BLU 27006KT CAVOK

TAF TAF EHEH
Valide du 24 à 06h jusqu'au 25 à 12h UTC


240518Z 2406/2512 VRB01KT CAVOK
BECMG 2408/2411 27010KT
TEMPO 2410/2418 28010G22KT
BECMG 2412/2415 32011KT
PROB30
TEMPO 2503/2506 4000 BR SCT008
BECMG 2506/2509 01004KT SCT025
Pas de NOTAMs connus pour ce terrain.



MET'MAP, la Météo Aéronautique d'un coup d'oeil ! - Copyright ORBIFLY Décembre 2007 - Disclaimer

ORBIFLY MET'MAP TEAM :

Programmation & Développement : Alexandra Zaïnal
Conception & Développement : Baudouin d'Aumeries
Co-Programmation & Développement : Marc-Olivier Méhu
Soutien technique & logistique : Manuel Goepfert

Contact : metmap@orbifly.com




SOURCES & CREDITS :

   NOAA